Wilsonville, Nebraska
Current Conditions -  °F | °C
As of 9:53 AM on Wednesday 26 Nov 2014 (Local Time) from KMCK Reporting Station
Broken Clouds Broken Clouds  
Wind Chill: 22°   Ceiling: 11000
Heat Index: 34°   Visibility: 10mi
Dew Point: 19°   Wind: 24mph
Humidity: 54%   Direction: 340°NNW
Pressure: 30.24"   Gusts: 30mph
Location:  40.11°N, 100.11°W
Report Text: KMCK 261553Z AUTO 34021G26KT 10SM BKN110 01/M07 A3024 RMK AO2 PK WND 33029/1522 SLP256 T00111072
Loading
Personal Weather Stations






























Interactive Weather Map New forecast layout! Learn more

10-Day Weather Forecast

Advertisements
Track Severe Weather on mobile